Time;durP1;ratioP1;P1;durP2;ratioP2;P2;SDS_P1;SDS_P2;PMS_P1;PMS_P2;Temp;Humidity;BMP_temperature;BMP_pressure;BME280_temperature;BME280_humidity;BME280_pressure;Samples;Min_cycle;Max_cycle;Signal;HPM_P1;HPM_P2
2022/06/10 00:01:06;;;;;;;5.25;2.10;;;16.60;58.00;;;;;;5056633;28;20052;-53
2022/06/10 00:03:35;;;;;;;3.30;1.98;;;16.50;58.00;;;;;;5060594;28;20055;-49
2022/06/10 00:06:05;;;;;;;6.25;2.65;;;16.50;58.00;;;;;;5060099;28;20056;-55
2022/06/10 00:08:34;;;;;;;2.85;2.20;;;16.50;58.10;;;;;;5060400;28;20083;-53
2022/06/10 00:11:02;;;;;;;3.60;2.65;;;16.50;58.20;;;;;;5060262;28;20056;-51
2022/06/10 00:13:32;;;;;;;5.25;2.60;;;16.50;58.30;;;;;;5061747;28;20057;-50
2022/06/10 00:16:02;;;;;;;4.47;2.70;;;16.50;58.20;;;;;;5059905;28;20068;-52
2022/06/10 00:18:31;;;;;;;5.47;2.80;;;16.40;58.20;;;;;;5061389;28;20504;-49
2022/06/10 00:21:00;;;;;;;4.68;2.38;;;16.40;58.20;;;;;;5056217;28;20049;-51
2022/06/10 00:23:28;;;;;;;5.53;3.03;;;16.40;58.30;;;;;;5060559;28;20049;-53
2022/06/10 00:25:56;;;;;;;2.80;2.50;;;16.40;58.30;;;;;;5060322;28;20119;-53
2022/06/10 00:28:23;;;;;;;5.70;2.90;;;16.30;58.30;;;;;;5065286;28;20498;-50
2022/06/10 00:30:51;;;;;;;3.92;2.75;;;16.40;58.90;;;;;;5061499;28;20118;-50
2022/06/10 00:33:20;;;;;;;4.85;2.80;;;16.30;58.40;;;;;;5065164;28;20052;-52
2022/06/10 00:35:48;;;;;;;3.95;2.75;;;16.30;58.40;;;;;;5062966;28;20052;-49
2022/06/10 00:38:15;;;;;;;3.65;2.83;;;16.30;58.40;;;;;;5064399;28;20487;-52
2022/06/10 00:40:45;;;;;;;5.63;2.83;;;16.30;58.40;;;;;;5060907;28;21199;-50
2022/06/10 00:43:16;;;;;;;5.70;3.40;;;16.30;58.50;;;;;;5064771;28;20053;-52
2022/06/10 00:45:57;;;;;;;4.32;3.47;;;16.20;58.50;;;;;;5063493;28;20060;-49
2022/06/10 00:48:36;;;;;;;4.70;3.17;;;16.20;58.60;;;;;;5061931;28;20053;-52
2022/06/10 00:51:10;;;;;;;5.70;3.33;;;16.20;58.60;;;;;;5060818;28;20059;-48
2022/06/10 00:53:38;;;;;;;7.90;3.65;;;16.20;58.60;;;;;;5064972;28;20060;-49
2022/06/10 00:56:13;;;;;;;8.93;3.20;;;16.20;58.50;;;;;;5064637;28;20053;-52
2022/06/10 00:58:47;;;;;;;5.57;3.42;;;16.10;58.60;;;;;;5063098;28;20492;-52
2022/06/10 01:01:16;;;;;;;5.93;3.38;;;16.10;58.60;;;;;;5059896;28;20052;-51
2022/06/10 01:03:45;;;;;;;4.22;3.20;;;16.10;58.60;;;;;;5064583;28;20083;-51
2022/06/10 01:06:13;;;;;;;6.82;3.65;;;16.10;58.60;;;;;;5062797;28;20056;-51
2022/06/10 01:08:43;;;;;;;6.80;3.25;;;16.00;58.60;;;;;;5064728;28;20504;-52
2022/06/10 01:11:30;;;;;;;4.20;3.33;;;16.00;58.70;;;;;;5061108;28;20045;-51
2022/06/10 01:14:07;;;;;;;4.15;3.45;;;16.00;58.90;;;;;;5063418;28;20068;-49
2022/06/10 01:16:41;;;;;;;5.85;3.80;;;16.00;58.80;;;;;;5063080;28;20060;-52
2022/06/10 01:19:53;;;;;;;3.47;3.13;;;16.00;58.80;;;;;;5062510;28;20052;-49
2022/06/10 01:22:51;;;;;;;6.68;3.40;;;15.90;58.90;;;;;;5063165;28;20056;-51
2022/06/10 01:25:38;;;;;;;6.45;3.80;;;15.90;58.90;;;;;;5063843;28;20053;-53
2022/06/10 01:28:13;;;;;;;7.43;3.95;;;15.90;58.90;;;;;;5062917;28;20416;-51
2022/06/10 01:31:08;;;;;;;7.07;3.78;;;15.90;58.90;;;;;;5059210;28;20057;-52
2022/06/10 01:33:45;;;;;;;;;;;15.90;59.00;;;;;;5062744;28;20411;-50
2022/06/10 01:36:25;;;;;;;3.63;3.30;;;15.90;58.90;;;;;;5061156;28;19947;-51
2022/06/10 01:39:02;;;;;;;5.72;3.58;;;15.90;58.70;;;;;;5056168;28;20060;-52
2022/06/10 01:41:37;;;;;;;4.45;3.47;;;15.90;58.80;;;;;;5060815;28;20048;-51
2022/06/10 01:44:14;;;;;;;6.65;3.72;;;15.80;58.90;;;;;;5063413;28;20048;-50
2022/06/10 01:46:49;;;;;;;4.82;3.70;;;15.80;59.10;;;;;;5062398;28;20055;-50
2022/06/10 01:49:24;;;;;;;8.13;3.70;;;15.80;59.10;;;;;;5060804;28;20064;-51
2022/06/10 01:51:58;;;;;;;6.28;4.07;;;15.70;59.10;;;;;;5059299;28;20507;-51
2022/06/10 01:54:32;;;;;;;4.53;3.45;;;15.70;59.10;;;;;;5062507;28;20044;-51
2022/06/10 01:57:05;;;;;;;9.65;3.92;;;15.70;59.20;;;;;;5062864;28;20056;-49
2022/06/10 01:59:38;;;;;;;5.50;3.63;;;15.70;59.20;;;;;;5060406;28;20055;-53
2022/06/10 02:02:11;;;;;;;5.13;3.58;;;15.70;59.30;;;;;;5060891;28;20408;-51
2022/06/10 02:04:44;;;;;;;4.97;4.07;;;15.70;59.20;;;;;;5062969;28;20064;-49
2022/06/10 02:07:16;;;;;;;5.63;3.63;;;15.70;59.20;;;;;;5062206;28;20048;-51
2022/06/10 02:09:48;;;;;;;3.97;3.38;;;15.60;59.20;;;;;;5061885;28;20060;-51
2022/06/10 02:12:21;;;;;;;4.97;3.90;;;15.60;59.30;;;;;;5059952;28;20075;-49
2022/06/10 02:14:54;;;;;;;4.72;3.80;;;15.60;59.30;;;;;;5061805;28;20052;-49
2022/06/10 02:17:26;;;;;;;6.28;4.20;;;15.60;59.40;;;;;;5062526;28;20529;-50
2022/06/10 02:19:59;;;;;;;5.10;3.85;;;15.60;59.30;;;;;;5058995;28;20507;-51
2022/06/10 02:22:31;;;;;;;5.97;3.65;;;15.50;59.30;;;;;;5060929;28;20451;-52
2022/06/10 02:25:03;;;;;;;6.65;3.90;;;15.50;59.40;;;;;;5062482;28;20512;-52
2022/06/10 02:27:35;;;;;;;4.80;3.70;;;15.50;59.40;;;;;;5063359;28;20431;-50
2022/06/10 02:30:07;;;;;;;3.78;3.38;;;15.50;59.40;;;;;;5058577;28;20060;-52
2022/06/10 02:32:38;;;;;;;6.13;3.70;;;15.50;59.50;;;;;;5061332;28;20060;-52
2022/06/10 02:35:07;;;;;;;6.57;4.28;;;15.50;59.50;;;;;;5060731;28;20067;-50
2022/06/10 02:37:46;;;;;;;7.00;4.20;;;15.50;59.50;;;;;;5061693;28;20053;-53
2022/06/10 02:40:23;;;;;;;6.70;4.28;;;15.40;59.50;;;;;;5060958;28;20059;-48
2022/06/10 02:42:58;;;;;;;6.22;4.10;;;15.50;59.60;;;;;;5062621;28;20067;-50
2022/06/10 02:45:35;;;;;;;3.90;3.50;;;15.40;59.50;;;;;;5060543;28;20607;-52
2022/06/10 02:48:11;;;;;;;4.15;3.30;;;15.40;59.60;;;;;;5061594;28;20110;-50
2022/06/10 02:50:39;;;;;;;4.95;3.70;;;15.40;59.50;;;;;;5058129;28;20052;-51
2022/06/10 02:53:08;;;;;;;7.50;4.00;;;15.40;59.50;;;;;;5063067;28;20431;-51
2022/06/10 02:55:37;;;;;;;5.05;3.70;;;15.40;59.60;;;;;;5061097;28;20052;-50
2022/06/10 03:01:16;;;;;;;4.70;3.70;;;15.30;59.60;;;;;;5063906;28;20055;-52
2022/06/10 03:04:07;;;;;;;5.35;3.65;;;15.30;59.60;;;;;;5060028;28;20492;-52
2022/06/10 03:06:47;;;;;;;7.72;4.15;;;15.30;59.70;;;;;;5058458;28;20056;-52
2022/06/10 03:09:20;;;;;;;4.90;3.92;;;15.30;59.60;;;;;;5059441;28;20052;-53
2022/06/10 03:12:01;;;;;;;5.70;4.67;;;15.30;59.60;;;;;;5057031;28;20056;-49
2022/06/10 03:14:43;;;;;;;5.00;3.78;;;15.30;59.70;;;;;;5057630;28;20044;-53
2022/06/10 03:17:19;;;;;;;5.28;3.80;;;15.20;59.60;;;;;;5061962;28;20057;-54
2022/06/10 03:20:01;;;;;;;5.40;3.95;;;15.20;60.20;;;;;;5059385;28;20067;-50
2022/06/10 03:22:47;;;;;;;4.40;4.00;;;15.20;59.70;;;;;;5060683;28;20079;-52
2022/06/10 03:25:21;;;;;;;7.07;4.10;;;15.20;59.70;;;;;;5060808;28;20056;-48
2022/06/10 03:27:54;;;;;;;4.88;3.67;;;15.20;59.70;;;;;;5058919;28;20067;-52
2022/06/10 03:30:28;;;;;;;6.72;4.70;;;15.20;59.60;;;;;;5059990;28;20060;-49
2022/06/10 03:33:03;;;;;;;7.07;4.07;;;15.10;59.70;;;;;;5060482;28;20488;-52
2022/06/10 03:35:37;;;;;;;4.95;3.92;;;15.10;59.70;;;;;;5060152;28;20059;-54
2022/06/10 03:38:06;;;;;;;4.93;3.33;;;15.10;59.70;;;;;;5059894;28;20060;-50
2022/06/10 03:40:34;;;;;;;3.42;3.13;;;15.10;59.70;;;;;;5056727;28;20385;-50
2022/06/10 03:43:06;;;;;;;4.47;3.53;;;15.10;59.80;;;;;;5061268;28;20520;-49
2022/06/10 03:45:38;;;;;;;5.30;4.18;;;15.10;59.80;;;;;;5059306;28;20052;-49
2022/06/10 03:48:07;;;;;;;4.18;3.78;;;15.10;59.90;;;;;;5061626;28;20049;-52
2022/06/10 03:50:38;;;;;;;5.45;4.38;;;15.10;59.90;;;;;;5056167;28;20079;-51
2022/06/10 03:53:06;;;;;;;5.25;4.03;;;15.10;60.00;;;;;;5061405;28;20061;-51
2022/06/10 03:55:34;;;;;;;5.70;4.35;;;15.00;59.90;;;;;;5059000;28;20068;-48
2022/06/10 03:58:01;;;;;;;6.18;3.97;;;15.00;60.00;;;;;;5061253;28;20048;-51
2022/06/10 04:00:30;;;;;;;5.60;3.97;;;15.00;60.00;;;;;;5054833;28;20059;-53
2022/06/10 04:02:57;;;;;;;5.63;3.67;;;15.10;60.00;;;;;;5059077;28;20055;-50
2022/06/10 04:05:25;;;;;;;5.13;3.92;;;15.00;60.00;;;;;;5056652;28;20051;-51
2022/06/10 04:07:54;;;;;;;4.32;3.40;;;15.00;60.00;;;;;;5057430;28;20060;-52
2022/06/10 04:10:27;;;;;;;3.97;3.42;;;15.00;60.10;;;;;;5055019;28;20048;-48
2022/06/10 04:12:55;;;;;;;4.00;3.60;;;15.00;60.10;;;;;;5058264;28;20049;-52
2022/06/10 04:15:24;;;;;;;8.05;5.55;;;15.00;60.10;;;;;;5061097;28;20052;-49
2022/06/10 04:17:52;;;;;;;7.32;4.32;;;15.00;60.30;;;;;;5057107;28;20048;-52
2022/06/10 04:20:23;;;;;;;6.07;4.18;;;15.00;60.30;;;;;;5059404;28;20052;-50
2022/06/10 04:22:50;;;;;;;5.70;4.07;;;15.00;60.30;;;;;;5059173;28;20056;-51
2022/06/10 04:25:20;;;;;;;4.65;3.88;;;15.00;60.30;;;;;;5061366;28;20053;-50
2022/06/10 04:27:48;;;;;;;5.10;4.15;;;15.00;60.40;;;;;;5060600;28;20048;-52
2022/06/10 04:30:23;;;;;;;6.30;4.10;;;15.00;60.40;;;;;;5061197;28;20492;-50
2022/06/10 04:32:50;;;;;;;4.03;3.20;;;15.00;60.60;;;;;;5061315;28;20056;-50
2022/06/10 04:35:18;;;;;;;7.32;4.97;;;15.10;60.60;;;;;;5056779;28;20055;-52
2022/06/10 04:37:45;;;;;;;13.48;8.43;;;15.10;60.80;;;;;;5061946;28;20057;-49
2022/06/10 04:40:16;;;;;;;9.70;6.47;;;15.10;60.90;;;;;;5060113;28;20056;-49
2022/06/10 04:42:46;;;;;;;4.65;4.05;;;15.10;61.10;;;;;;5061278;28;20075;-52
2022/06/10 04:45:18;;;;;;;4.65;3.65;;;15.10;61.10;;;;;;5059858;28;20516;-50
2022/06/10 04:47:46;;;;;;;6.70;4.22;;;15.10;61.10;;;;;;5059284;28;20049;-52
2022/06/10 04:50:15;;;;;;;4.97;3.15;;;15.20;61.20;;;;;;5059505;28;20400;-53
2022/06/10 04:52:43;;;;;;;5.60;3.70;;;15.20;61.40;;;;;;5061196;28;20056;-52
2022/06/10 04:55:11;;;;;;;3.45;3.15;;;15.20;61.40;;;;;;5061610;28;20338;-52
2022/06/10 04:57:39;;;;;;;4.20;3.30;;;15.20;61.50;;;;;;5060921;28;20053;-50
2022/06/10 05:00:12;;;;;;;3.80;3.40;;;15.20;61.50;;;;;;5061797;28;20492;-51
2022/06/10 05:02:39;;;;;;;4.07;3.58;;;15.30;61.90;;;;;;5061365;28;20053;-52
2022/06/10 05:05:08;;;;;;;4.30;3.33;;;15.30;61.90;;;;;;5060053;28;20061;-51
2022/06/10 05:07:35;;;;;;;5.28;3.00;;;15.30;62.00;;;;;;5060798;28;20508;-51
2022/06/10 05:10:04;;;;;;;9.27;3.65;;;15.30;62.00;;;;;;5057022;28;20079;-53
2022/06/10 05:12:31;;;;;;;6.20;3.05;;;15.40;62.10;;;;;;5059985;28;20060;-51
2022/06/10 05:14:59;;;;;;;3.58;3.10;;;15.40;62.10;;;;;;5064423;28;20059;-53
2022/06/10 05:17:28;;;;;;;3.88;2.95;;;15.40;62.20;;;;;;5065089;28;20052;-51
2022/06/10 05:19:55;;;;;;;8.48;3.00;;;15.50;62.40;;;;;;5060773;28;20053;-53
2022/06/10 05:22:23;;;;;;;4.22;3.25;;;15.50;62.50;;;;;;5062129;28;20052;-54
2022/06/10 05:24:50;;;;;;;2.95;2.33;;;15.50;62.70;;;;;;5064631;28;20389;-49
2022/06/10 05:27:18;;;;;;;2.55;2.20;;;15.60;62.90;;;;;;5064434;28;20056;-51
2022/06/10 05:29:45;;;;;;;3.33;2.47;;;15.60;62.90;;;;;;5064222;28;20063;-49
2022/06/10 05:32:13;;;;;;;2.92;2.17;;;15.70;63.10;;;;;;5063794;28;20056;-52
2022/06/10 05:34:47;;;;;;;3.83;2.67;;;15.70;63.10;;;;;;5063765;28;20052;-52
2022/06/10 05:37:17;;;;;;;2.85;2.15;;;15.80;63.40;;;;;;5064054;28;20060;-53
2022/06/10 05:39:45;;;;;;;2.88;2.25;;;15.80;63.30;;;;;;5060516;28;20049;-51
2022/06/10 05:42:13;;;;;;;2.90;2.20;;;15.90;63.50;;;;;;5061570;28;20056;-51
2022/06/10 05:44:43;;;;;;;5.60;2.00;;;15.90;63.60;;;;;;5063010;28;20048;-50
2022/06/10 05:47:15;;;;;;;8.23;4.88;;;16.00;63.60;;;;;;5060495;28;20061;-53
2022/06/10 05:49:49;;;;;;;8.20;3.50;;;16.10;63.80;;;;;;5060781;28;20419;-49
2022/06/10 05:52:19;;;;;;;4.60;2.35;;;16.10;63.90;;;;;;5060901;28;20236;-50
2022/06/10 05:54:48;;;;;;;5.00;2.17;;;16.20;63.90;;;;;;5063290;28;20049;-48
2022/06/10 05:57:16;;;;;;;4.50;1.92;;;16.30;64.10;;;;;;5064030;28;20435;-52
2022/06/10 05:59:44;;;;;;;3.08;2.05;;;16.30;64.00;;;;;;5062605;28;20502;-51
2022/06/10 06:02:14;;;;;;;3.10;1.92;;;16.40;64.10;;;;;;5059562;28;20048;-52
2022/06/10 06:04:42;;;;;;;2.80;2.15;;;16.50;64.20;;;;;;5062626;28;20057;-52
2022/06/10 06:07:15;;;;;;;2.45;1.42;;;16.60;64.00;;;;;;5061986;28;20056;-53
2022/06/10 06:09:42;;;;;;;2.92;1.90;;;16.70;64.10;;;;;;5063592;28;20053;-52
2022/06/10 06:12:10;;;;;;;3.63;1.77;;;16.70;64.00;;;;;;5061925;28;20063;-50
2022/06/10 06:14:38;;;;;;;3.95;1.60;;;16.80;64.00;;;;;;5063405;28;20045;-53
2022/06/10 06:17:07;;;;;;;3.10;1.60;;;16.90;64.40;;;;;;5062789;28;20061;-52
2022/06/10 06:19:35;;;;;;;2.45;1.70;;;17.00;64.20;;;;;;5062082;28;20060;-53
2022/06/10 06:22:03;;;;;;;3.75;1.80;;;17.10;64.50;;;;;;5060518;28;20056;-52
2022/06/10 06:24:33;;;;;;;4.85;1.63;;;17.10;64.40;;;;;;5062220;28;20071;-52
2022/06/10 06:27:01;;;;;;;7.22;1.70;;;17.30;64.30;;;;;;5062301;28;20056;-52
2022/06/10 06:29:29;;;;;;;4.45;1.40;;;17.40;64.20;;;;;;5062095;28;20079;-52
2022/06/10 06:31:57;;;;;;;2.78;1.48;;;17.40;64.10;;;;;;5059633;28;20052;-50
2022/06/10 06:34:25;;;;;;;2.63;1.80;;;17.50;64.10;;;;;;5059002;28;20056;-51
2022/06/10 06:36:55;;;;;;;2.95;2.03;;;17.60;64.10;;;;;;5061387;28;20063;-48
2022/06/10 06:39:26;;;;;;;35.33;16.52;;;17.80;64.00;;;;;;5061798;28;20131;-52
2022/06/10 06:41:56;;;;;;;14.98;9.32;;;17.90;63.80;;;;;;5061860;28;20491;-55
2022/06/10 06:44:24;;;;;;;5.70;3.40;;;17.90;63.50;;;;;;5059092;28;20052;-55
2022/06/10 06:46:51;;;;;;;5.05;2.53;;;18.10;63.50;;;;;;5044475;28;20049;-53
2022/06/10 06:49:22;;;;;;;6.22;1.98;;;18.20;63.30;;;;;;5058546;28;20067;-53
2022/06/10 06:51:49;;;;;;;4.13;1.80;;;18.30;63.00;;;;;;5059147;28;20063;-54
2022/06/10 06:54:17;;;;;;;4.93;1.95;;;18.40;62.70;;;;;;5059662;28;20492;-51
2022/06/10 06:56:45;;;;;;;3.15;2.00;;;18.50;62.40;;;;;;5059873;28;20063;-52
2022/06/10 06:59:14;;;;;;;5.03;1.77;;;18.50;62.00;;;;;;5057995;28;20503;-54
2022/06/10 07:01:42;;;;;;;2.65;1.70;;;18.60;61.90;;;;;;5054750;28;20056;-52
2022/06/10 07:04:09;;;;;;;5.82;1.80;;;18.70;61.80;;;;;;5057316;28;20060;-53
2022/06/10 07:06:38;;;;;;;5.57;1.90;;;18.70;61.90;;;;;;5056914;28;20067;-52
2022/06/10 07:09:06;;;;;;;5.47;2.30;;;18.80;62.00;;;;;;5057836;28;20052;-55
2022/06/10 07:11:35;;;;;;;4.55;1.67;;;18.90;62.20;;;;;;5058606;28;20055;-55
2022/06/10 07:14:02;;;;;;;7.13;1.80;;;19.00;62.30;;;;;;5057052;28;20056;-54
2022/06/10 07:16:31;;;;;;;4.80;1.90;;;19.00;62.00;;;;;;5059263;28;20045;-55
2022/06/10 07:18:59;;;;;;;5.22;1.67;;;19.20;62.30;;;;;;5058186;28;20053;-55
2022/06/10 07:21:27;;;;;;;5.95;2.03;;;19.20;62.00;;;;;;5059392;28;20052;-55
2022/06/10 07:23:55;;;;;;;7.20;1.83;;;19.30;61.50;;;;;;5059883;28;20787;-54
2022/06/10 07:26:23;;;;;;;7.97;1.70;;;19.40;61.00;;;;;;5058863;28;20048;-51
2022/06/10 07:28:51;;;;;;;3.28;1.75;;;19.50;60.70;;;;;;5060893;28;20056;-54
2022/06/10 07:31:20;;;;;;;3.75;1.27;;;19.60;60.50;;;;;;5058030;28;20075;-55
2022/06/10 07:33:48;;;;;;;4.15;1.63;;;19.70;60.20;;;;;;5060043;28;20060;-53
2022/06/10 07:36:16;;;;;;;8.18;1.60;;;19.80;59.90;;;;;;5059992;28;20435;-55
2022/06/10 07:38:44;;;;;;;3.80;1.40;;;19.90;59.90;;;;;;5060295;28;20064;-55
2022/06/10 07:43:56;;;;;;;6.15;1.67;;;20.10;59.50;;;;;;5064656;28;20061;-53
2022/06/10 07:46:24;;;;;;;6.07;1.52;;;20.20;59.20;;;;;;5061441;28;20539;-53
2022/06/10 07:48:53;;;;;;;4.80;1.63;;;20.20;59.00;;;;;;5061443;28;20439;-53
2022/06/10 07:51:21;;;;;;;5.25;1.60;;;20.40;58.60;;;;;;5060646;28;20052;-55
2022/06/10 07:53:49;;;;;;;4.45;1.40;;;20.50;58.70;;;;;;5061779;28;20052;-55
2022/06/10 07:56:22;;;;;;;4.47;1.95;;;20.60;59.40;;;;;;5060868;28;20057;-52
2022/06/10 07:58:53;;;;;;;4.20;1.30;;;20.80;58.60;;;;;;5060624;28;20396;-57
2022/06/10 08:01:22;;;;;;;5.78;1.30;;;20.90;58.30;;;;;;5060970;28;20048;-55
2022/06/10 08:03:50;;;;;;;7.88;2.38;;;21.00;57.80;;;;;;5060564;28;20067;-54
2022/06/10 08:06:21;;;;;;;5.68;1.50;;;21.10;55.60;;;;;;5059616;28;20498;-51
2022/06/10 08:08:49;;;;;;;6.60;2.00;;;21.20;55.50;;;;;;5060460;28;20815;-53
2022/06/10 08:11:16;;;;;;;8.05;1.60;;;21.30;55.60;;;;;;5057030;28;20841;-54
2022/06/10 08:13:44;;;;;;;7.75;1.42;;;21.40;54.60;;;;;;5059983;28;20063;-53
2022/06/10 08:16:12;;;;;;;8.82;1.55;;;21.50;54.10;;;;;;5054690;28;20496;-53
2022/06/10 08:18:39;;;;;;;8.50;1.60;;;21.50;53.80;;;;;;5059758;28;20412;-56
2022/06/10 08:23:56;;;;;;;6.10;1.58;;;21.70;53.10;;;;;;5064902;28;20055;-52
2022/06/10 08:26:25;;;;;;;13.68;2.00;;;21.70;52.70;;;;;;5060591;28;20435;-55
2022/06/10 08:28:54;;;;;;;7.40;1.98;;;21.80;52.40;;;;;;5059030;28;20102;-57
2022/06/10 08:31:22;;;;;;;7.47;1.52;;;21.90;52.40;;;;;;5058495;28;20048;-57
2022/06/10 08:33:49;;;;;;;8.35;1.90;;;22.00;52.00;;;;;;5060323;28;20416;-52
2022/06/10 08:36:17;;;;;;;6.75;1.27;;;22.00;51.70;;;;;;5059052;28;20063;-53
2022/06/10 08:38:44;;;;;;;5.88;1.52;;;22.10;51.40;;;;;;5058858;28;20064;-55
2022/06/10 08:41:22;;;;;;;12.48;2.20;;;22.20;51.20;;;;;;5058683;28;20053;-55
2022/06/10 08:44:00;;;;;;;6.10;1.50;;;22.30;50.40;;;;;;5059296;28;20063;-55
2022/06/10 08:46:47;;;;;;;7.25;1.58;;;22.30;50.70;;;;;;5049954;28;20052;-57
2022/06/10 08:49:35;;;;;;;6.70;1.70;;;22.40;50.90;;;;;;5048795;28;20059;-55
2022/06/10 08:52:14;;;;;;;10.18;1.63;;;22.50;50.40;;;;;;5046666;28;20060;-54
2022/06/10 08:54:47;;;;;;;8.90;1.77;;;22.50;49.50;;;;;;5056726;28;20048;-54
2022/06/10 08:57:24;;;;;;;7.43;1.83;;;22.70;49.90;;;;;;5061609;28;20044;-50
2022/06/10 08:59:54;;;;;;;10.73;2.05;;;22.70;49.20;;;;;;5060675;28;20068;-57
2022/06/10 09:02:30;;;;;;;9.00;1.67;;;22.80;48.80;;;;;;5059100;28;20056;-61
2022/06/10 09:05:02;;;;;;;8.65;1.48;;;22.80;47.60;;;;;;5057670;28;20056;-62
2022/06/10 09:07:34;;;;;;;8.98;1.55;;;22.80;47.60;;;;;;5064127;28;20485;-53
2022/06/10 09:10:05;;;;;;;8.07;1.77;;;22.80;47.30;;;;;;5064793;28;20056;-51
2022/06/10 09:13:00;;;;;;;5.50;1.33;;;22.80;47.10;;;;;;5060989;28;20067;-52
2022/06/10 09:15:30;;;;;;;4.93;1.98;;;22.80;46.90;;;;;;5062951;28;20408;-51
2022/06/10 09:18:03;;;;;;;8.70;1.50;;;22.80;47.60;;;;;;5064087;28;20056;-55
2022/06/10 09:20:36;;;;;;;6.40;1.90;;;22.80;47.40;;;;;;5062652;28;20079;-61
2022/06/10 09:23:11;;;;;;;4.68;1.30;;;22.90;47.30;;;;;;5063284;28;20056;-53
2022/06/10 09:25:42;;;;;;;9.85;1.52;;;22.90;47.00;;;;;;5063623;28;20067;-51
2022/06/10 09:28:12;;;;;;;6.53;1.45;;;23.00;46.60;;;;;;5064694;28;20424;-61
2022/06/10 09:30:47;;;;;;;8.20;1.52;;;23.00;46.30;;;;;;5060844;28;20060;-53
2022/06/10 09:33:21;;;;;;;6.55;1.58;;;23.00;46.30;;;;;;5060561;28;20506;-51
2022/06/10 09:36:03;;;;;;;8.68;1.33;;;23.10;46.80;;;;;;5060782;28;20083;-52
2022/06/10 09:38:37;;;;;;;6.80;1.85;;;23.10;46.70;;;;;;5060096;28;20048;-54
2022/06/10 09:41:14;;;;;;;5.22;1.50;;;23.10;46.70;;;;;;5060630;28;20048;-53
2022/06/10 09:44:03;;;;;;;5.47;1.42;;;23.20;46.60;;;;;;5061189;28;20492;-50
2022/06/10 09:46:47;;;;;;;10.10;1.92;;;23.20;47.10;;;;;;5061125;28;20075;-60
2022/06/10 09:49:39;;;;;;;7.40;1.65;;;23.20;46.80;;;;;;5060508;28;20055;-53
2022/06/10 09:52:15;;;;;;;7.38;1.50;;;23.30;46.00;;;;;;5061984;28;20055;-52
2022/06/10 09:55:03;;;;;;;10.38;2.55;;;23.40;46.90;;;;;;5063634;28;20056;-58
2022/06/10 09:57:55;;;;;;;8.50;2.03;;;23.40;46.20;;;;;;5062771;28;20396;-52
2022/06/10 10:00:31;;;;;;;9.63;1.63;;;23.40;45.60;;;;;;5061227;28;20052;-54
2022/06/10 10:03:14;;;;;;;6.38;1.70;;;23.40;46.00;;;;;;5062706;28;20056;-51
2022/06/10 10:05:55;;;;;;;9.10;1.70;;;23.40;46.00;;;;;;5061162;28;20061;-54
2022/06/10 10:08:34;;;;;;;7.10;1.67;;;23.40;45.90;;;;;;5062459;28;20048;-60
2022/06/10 10:11:08;;;;;;;7.75;1.65;;;23.40;46.00;;;;;;5061953;28;20044;-54
2022/06/10 10:13:48;;;;;;;8.52;2.00;;;23.40;45.80;;;;;;5063292;28;20064;-52
2022/06/10 10:16:27;;;;;;;10.52;1.60;;;23.30;45.70;;;;;;5062066;28;20056;-52
2022/06/10 10:19:09;;;;;;;9.10;1.95;;;23.30;45.80;;;;;;5062605;28;20060;-50
2022/06/10 10:21:45;;;;;;;5.55;1.63;;;23.30;45.90;;;;;;5059765;28;20056;-50
2022/06/10 10:24:18;;;;;;;10.68;1.55;;;23.30;46.10;;;;;;5061689;28;20060;-51
2022/06/10 10:26:46;;;;;;;5.60;1.45;;;23.20;46.10;;;;;;5062663;28;20048;-53
2022/06/10 10:29:17;;;;;;;7.35;1.50;;;23.20;46.70;;;;;;5062799;28;20055;-54
2022/06/10 10:31:52;;;;;;;8.80;1.88;;;23.20;46.20;;;;;;5060535;28;20056;-53
2022/06/10 10:34:22;;;;;;;6.95;2.00;;;23.20;46.30;;;;;;5061295;28;20072;-54
2022/06/10 10:36:52;;;;;;;5.13;1.92;;;23.20;46.40;;;;;;5059891;28;20057;-53
2022/06/10 10:39:29;;;;;;;13.07;1.90;;;23.20;46.80;;;;;;5062621;28;20408;-49
2022/06/10 10:42:01;;;;;;;4.38;1.33;;;23.30;46.90;;;;;;5061602;28;20386;-50
2022/06/10 10:44:38;;;;;;;5.75;1.70;;;23.30;46.40;;;;;;5062291;28;20079;-53
2022/06/10 10:47:19;;;;;;;6.72;1.60;;;23.40;46.50;;;;;;5060772;28;20045;-51
2022/06/10 10:49:49;;;;;;;4.65;1.40;;;23.40;46.20;;;;;;5061959;28;20523;-54
2022/06/10 10:52:21;;;;;;;5.97;1.15;;;23.50;46.00;;;;;;5061706;28;20519;-54
2022/06/10 10:54:53;;;;;;;7.40;1.60;;;23.50;46.20;;;;;;5062637;28;20052;-50
2022/06/10 10:57:26;;;;;;;6.68;1.20;;;23.60;46.70;;;;;;5062277;28;20400;-54
2022/06/10 11:00:00;;;;;;;7.75;1.90;;;23.60;46.10;;;;;;5060207;28;20048;-51
2022/06/10 11:02:36;;;;;;;6.22;1.40;;;23.60;45.70;;;;;;5058457;28;20413;-55
2022/06/10 11:05:23;;;;;;;7.13;1.67;;;23.70;45.70;;;;;;5057318;28;20056;-54
2022/06/10 11:08:13;;;;;;;3.88;1.23;;;23.70;45.90;;;;;;5060794;28;20503;-52
2022/06/10 11:10:51;;;;;;;6.10;1.65;;;23.80;46.00;;;;;;5059082;28;20480;-53
2022/06/10 11:13:34;;;;;;;5.90;1.30;;;23.80;46.50;;;;;;5056923;28;20063;-53
2022/06/10 11:16:35;;;;;;;6.90;1.90;;;24.00;46.60;;;;;;5060216;28;20056;-53
2022/06/10 11:19:19;;;;;;;5.38;1.33;;;24.00;46.50;;;;;;5062369;28;20063;-53
2022/06/10 11:21:56;;;;;;;5.85;1.70;;;24.10;46.50;;;;;;5059892;28;20064;-49
2022/06/10 11:24:28;;;;;;;6.15;1.30;;;24.20;46.00;;;;;;5061974;28;20064;-50
2022/06/10 11:26:58;;;;;;;6.25;1.50;;;24.20;46.50;;;;;;5059749;28;20484;-52
2022/06/10 11:29:26;;;;;;;5.65;1.33;;;24.30;46.50;;;;;;5057199;28;20052;-53
2022/06/10 11:31:57;;;;;;;5.47;1.85;;;24.40;46.30;;;;;;5051868;28;20063;-51
2022/06/10 11:34:34;;;;;;;6.20;1.55;;;24.50;45.60;;;;;;5054723;28;20053;-52
2022/06/10 11:37:18;;;;;;;7.03;1.90;;;24.50;45.10;;;;;;5051817;28;20428;-60
2022/06/10 11:39:50;;;;;;;3.95;1.35;;;24.50;45.00;;;;;;5059216;28;20048;-58
2022/06/10 11:42:22;;;;;;;6.22;1.35;;;24.60;44.90;;;;;;5061378;28;20052;-53
2022/06/10 11:44:54;;;;;;;6.88;1.50;;;24.60;45.20;;;;;;5058032;28;20053;-52
2022/06/10 11:47:28;;;;;;;7.75;1.42;;;24.60;45.20;;;;;;5058973;28;20366;-51
2022/06/10 11:50:03;;;;;;;6.43;1.85;;;24.70;45.20;;;;;;5058260;28;20061;-55
2022/06/10 11:52:34;;;;;;;8.10;1.70;;;24.70;44.70;;;;;;5060336;28;20049;-55
2022/06/10 11:55:10;;;;;;;8.05;1.42;;;24.80;44.40;;;;;;5061244;28;20063;-55
2022/06/10 12:00:34;;;;;;;7.35;2.88;;;24.90;45.00;;;;;;5067655;28;20122;-52
2022/06/10 12:03:15;;;;;;;5.78;2.15;;;25.00;45.40;;;;;;5061443;28;20048;-52
2022/06/10 12:05:52;;;;;;;5.13;1.85;;;25.00;45.50;;;;;;5060376;28;20056;-51
2022/06/10 12:08:36;;;;;;;3.97;1.50;;;25.10;44.90;;;;;;5061686;28;20532;-50
2022/06/10 12:11:07;;;;;;;6.32;1.55;;;25.20;44.70;;;;;;5060753;28;20060;-50
2022/06/10 12:13:42;;;;;;;8.45;2.00;;;25.20;44.40;;;;;;5059722;28;20056;-58
2022/06/10 12:16:10;;;;;;;6.93;1.45;;;25.20;43.90;;;;;;5061485;28;20416;-55
2022/06/10 12:18:43;;;;;;;8.80;1.83;;;25.30;44.00;;;;;;5058470;28;20890;-54
2022/06/10 12:21:18;;;;;;;3.57;1.17;;;25.30;43.20;;;;;;5057734;28;20056;-57
2022/06/10 12:23:47;;;;;;;5.95;1.30;;;25.30;43.50;;;;;;5063882;28;20067;-52
2022/06/10 12:26:27;;;;;;;5.68;1.40;;;25.30;44.20;;;;;;5065230;28;20056;-56
2022/06/10 12:29:01;;;;;;;7.65;1.40;;;25.30;43.40;;;;;;5063918;28;20059;-58
2022/06/10 12:31:45;;;;;;;6.18;1.17;;;25.30;43.20;;;;;;5061782;28;20052;-54
2022/06/10 12:34:23;;;;;;;6.67;1.23;;;25.30;43.30;;;;;;5063005;28;20060;-55
2022/06/10 12:36:56;;;;;;;5.93;1.40;;;25.30;43.30;;;;;;5064303;28;20060;-53
2022/06/10 12:39:28;;;;;;;8.45;1.63;;;25.30;44.70;;;;;;5063676;28;20048;-53
2022/06/10 12:42:04;;;;;;;4.43;1.38;;;25.30;44.10;;;;;;5064092;28;20048;-53
2022/06/10 12:44:37;;;;;;;6.05;1.35;;;25.30;43.90;;;;;;5061048;28;20044;-55
2022/06/10 12:47:07;;;;;;;9.55;1.80;;;25.40;43.40;;;;;;5061272;28;20063;-54
2022/06/10 12:49:39;;;;;;;5.38;1.42;;;25.40;43.40;;;;;;5062859;28;20487;-54
2022/06/10 12:52:31;;;;;;;6.10;1.50;;;25.50;44.00;;;;;;5063596;28;20056;-53
2022/06/10 12:55:03;;;;;;;3.80;1.15;;;25.50;43.50;;;;;;5064615;28;20048;-56
2022/06/10 12:57:39;;;;;;;4.28;1.40;;;25.60;44.00;;;;;;5063813;28;20059;-54
2022/06/10 13:00:38;;;;;;;6.38;1.35;;;25.60;44.20;;;;;;5063953;28;20810;-54
2022/06/10 13:03:40;;;;;;;11.88;1.83;;;25.70;43.50;;;;;;5063023;28;20052;-54
2022/06/10 13:06:27;;;;;;;5.10;1.08;;;25.80;43.80;;;;;;5061745;28;20057;-56
2022/06/10 13:08:59;;;;;;;8.07;1.60;;;26.00;43.90;;;;;;5063887;28;20052;-59
2022/06/10 13:11:34;;;;;;;8.13;1.80;;;26.00;43.70;;;;;;5063181;28;20051;-58
2022/06/10 13:14:39;;;;;;;3.92;1.13;;;26.10;43.40;;;;;;5064551;28;20068;-52
2022/06/10 13:17:17;;;;;;;6.90;1.77;;;26.10;43.30;;;;;;5040814;28;20057;-52
2022/06/10 13:20:26;;;;;;;5.18;1.85;;;26.10;43.20;;;;;;5062410;28;20385;-52
2022/06/10 13:23:16;;;;;;;6.72;1.30;;;26.10;43.00;;;;;;5063312;28;20057;-54
2022/06/10 13:25:48;;;;;;;6.65;1.27;;;26.20;42.50;;;;;;5064195;28;20059;-54
2022/06/10 13:28:28;;;;;;;8.13;1.38;;;26.20;42.70;;;;;;5062610;28;20040;-56